sensor_id;sensor_type;location;lat;lon;timestamp;pressure;altitude;pressure_sealevel;temperature;humidity
75420;BME280;63998;52.488;13.428;2024-01-25T00:00:27;101236.84;;;8.42;65.26
75420;BME280;63998;52.488;13.428;2024-01-25T00:02:52;101235.19;;;8.45;66.10
75420;BME280;63998;52.488;13.428;2024-01-25T00:05:17;101236.84;;;8.42;66.64
75420;BME280;63998;52.488;13.428;2024-01-25T00:07:50;101264.53;;;8.46;66.05
75420;BME280;63998;52.488;13.428;2024-01-25T00:10:16;101255.81;;;8.41;66.80
75420;BME280;63998;52.488;13.428;2024-01-25T00:12:42;101248.91;;;8.40;67.16
75420;BME280;63998;52.488;13.428;2024-01-25T00:15:09;101241.84;;;8.33;67.23
75420;BME280;63998;52.488;13.428;2024-01-25T00:17:35;101263.28;;;8.25;68.65
75420;BME280;63998;52.488;13.428;2024-01-25T00:20:00;101257.28;;;8.29;68.03
75420;BME280;63998;52.488;13.428;2024-01-25T00:22:26;101267.59;;;8.26;69.44
75420;BME280;63998;52.488;13.428;2024-01-25T00:24:51;101265.78;;;8.22;69.30
75420;BME280;63998;52.488;13.428;2024-01-25T00:27:19;101263.16;;;8.21;68.97
75420;BME280;63998;52.488;13.428;2024-01-25T00:29:44;101275.16;;;8.17;69.25
75420;BME280;63998;52.488;13.428;2024-01-25T00:32:09;101281.25;;;8.19;69.32
75420;BME280;63998;52.488;13.428;2024-01-25T00:34:35;101282.88;;;8.14;69.84
75420;BME280;63998;52.488;13.428;2024-01-25T00:37:01;101274.38;;;8.21;68.71
75420;BME280;63998;52.488;13.428;2024-01-25T00:39:27;101275.16;;;8.17;69.27
75420;BME280;63998;52.488;13.428;2024-01-25T00:41:57;101292.44;;;8.18;69.66
75420;BME280;63998;52.488;13.428;2024-01-25T00:44:24;101284.66;;;8.18;69.09
75420;BME280;63998;52.488;13.428;2024-01-25T00:46:49;101278.63;;;8.18;69.32
75420;BME280;63998;52.488;13.428;2024-01-25T00:49:17;101294.25;;;8.22;68.64
75420;BME280;63998;52.488;13.428;2024-01-25T00:51:46;101297.63;;;8.20;69.58
75420;BME280;63998;52.488;13.428;2024-01-25T00:54:13;101308.13;;;8.26;68.57
75420;BME280;63998;52.488;13.428;2024-01-25T00:56:41;101309.00;;;8.26;68.27
75420;BME280;63998;52.488;13.428;2024-01-25T00:59:07;101286.56;;;8.25;68.58
75420;BME280;63998;52.488;13.428;2024-01-25T01:01:33;101292.47;;;8.20;69.66
75420;BME280;63998;52.488;13.428;2024-01-25T01:03:59;101284.56;;;8.12;69.50
75420;BME280;63998;52.488;13.428;2024-01-25T01:06:27;101286.25;;;8.10;69.48
75420;BME280;63998;52.488;13.428;2024-01-25T01:08:53;101284.50;;;8.09;69.51
75420;BME280;63998;52.488;13.428;2024-01-25T01:11:21;101283.69;;;8.12;69.31
75420;BME280;63998;52.488;13.428;2024-01-25T01:13:46;101272.47;;;8.11;68.78
75420;BME280;63998;52.488;13.428;2024-01-25T01:16:12;101286.25;;;8.10;68.97
75420;BME280;63998;52.488;13.428;2024-01-25T01:18:37;101283.69;;;8.12;68.40
75420;BME280;63998;52.488;13.428;2024-01-25T01:21:04;101296.69;;;8.16;68.33
75420;BME280;63998;52.488;13.428;2024-01-25T01:23:33;101287.22;;;8.15;68.85
75420;BME280;63998;52.488;13.428;2024-01-25T01:25:58;101292.44;;;8.18;68.72
75420;BME280;63998;52.488;13.428;2024-01-25T01:28:24;101279.47;;;8.17;68.51
75420;BME280;63998;52.488;13.428;2024-01-25T01:30:49;101271.81;;;8.21;67.61
75420;BME280;63998;52.488;13.428;2024-01-25T01:33:15;101285.75;;;8.28;67.38
75420;BME280;63998;52.488;13.428;2024-01-25T01:35:40;101286.56;;;8.25;67.46
75420;BME280;63998;52.488;13.428;2024-01-25T01:38:06;101286.56;;;8.25;68.11
75420;BME280;63998;52.488;13.428;2024-01-25T01:40:31;101274.53;;;8.27;67.63
75420;BME280;63998;52.488;13.428;2024-01-25T01:43:00;101276.13;;;8.22;68.28
75420;BME280;63998;52.488;13.428;2024-01-25T01:45:26;101264.03;;;8.21;68.56
75420;BME280;63998;52.488;13.428;2024-01-25T01:47:52;101282.19;;;8.23;67.64
75420;BME280;63998;52.488;13.428;2024-01-25T01:50:18;101300.25;;;8.21;68.21
75420;BME280;63998;52.488;13.428;2024-01-25T01:52:43;101291.66;;;8.22;67.61
75420;BME280;63998;52.488;13.428;2024-01-25T01:55:09;101299.34;;;8.19;68.16
75420;BME280;63998;52.488;13.428;2024-01-25T01:57:36;101301.94;;;8.19;67.98
75420;BME280;63998;52.488;13.428;2024-01-25T02:00:03;101293.22;;;8.14;68.21
75420;BME280;63998;52.488;13.428;2024-01-25T02:02:30;101297.44;;;8.09;68.03
75420;BME280;63998;52.488;13.428;2024-01-25T02:04:55;101287.84;;;8.05;69.34
75420;BME280;63998;52.488;13.428;2024-01-25T02:07:21;101307.66;;;8.03;69.29
75420;BME280;63998;52.488;13.428;2024-01-25T02:09:46;101324.97;;;8.07;68.26
75420;BME280;63998;52.488;13.428;2024-01-25T02:12:15;101320.72;;;8.09;68.31
75420;BME280;63998;52.488;13.428;2024-01-25T02:14:42;101322.47;;;8.10;68.01
75420;BME280;63998;52.488;13.428;2024-01-25T02:17:07;101323.41;;;8.14;67.60
75420;BME280;63998;52.488;13.428;2024-01-25T02:19:33;101339.84;;;8.17;67.79
75420;BME280;63998;52.488;13.428;2024-01-25T02:21:58;101336.38;;;8.17;67.22
75420;BME280;63998;52.488;13.428;2024-01-25T02:24:24;101339.81;;;8.14;68.26
75420;BME280;63998;52.488;13.428;2024-01-25T02:26:49;101326.06;;;8.18;68.12
75420;BME280;63998;52.488;13.428;2024-01-25T02:29:15;101345.84;;;8.16;68.02
75420;BME280;63998;52.488;13.428;2024-01-25T02:31:40;101347.53;;;8.13;67.42
75420;BME280;63998;52.488;13.428;2024-01-25T02:34:06;101356.16;;;8.13;67.26
75420;BME280;63998;52.488;13.428;2024-01-25T02:36:31;101339.03;;;8.20;67.19
75420;BME280;63998;52.488;13.428;2024-01-25T02:38:57;101334.66;;;8.17;67.67
75420;BME280;63998;52.488;13.428;2024-01-25T02:41:22;101326.84;;;8.13;67.53
75420;BME280;63998;52.488;13.428;2024-01-25T02:43:48;101348.38;;;8.12;67.66
75420;BME280;63998;52.488;13.428;2024-01-25T02:46:13;101343.00;;;8.04;68.67
75420;BME280;63998;52.488;13.428;2024-01-25T02:48:39;101339.53;;;8.02;69.34
75420;BME280;63998;52.488;13.428;2024-01-25T02:51:04;101343.97;;;8.08;68.49
75420;BME280;63998;52.488;13.428;2024-01-25T02:53:30;101332.63;;;8.01;68.81
75420;BME280;63998;52.488;13.428;2024-01-25T02:55:55;101342.97;;;8.01;68.33
75420;BME280;63998;52.488;13.428;2024-01-25T02:58:20;101350.00;;;8.08;68.28
75420;BME280;63998;52.488;13.428;2024-01-25T03:00:46;101356.84;;;8.06;68.61
75420;BME280;63998;52.488;13.428;2024-01-25T03:03:11;101343.88;;;8.05;69.45
75420;BME280;63998;52.488;13.428;2024-01-25T03:05:36;101347.25;;;8.01;69.13
75420;BME280;63998;52.488;13.428;2024-01-25T03:08:02;101351.56;;;8.00;69.36
75420;BME280;63998;52.488;13.428;2024-01-25T03:10:28;101358.53;;;8.04;68.53
75420;BME280;63998;52.488;13.428;2024-01-25T03:12:53;101349.06;;;8.05;68.42
75420;BME280;63998;52.488;13.428;2024-01-25T03:15:18;101348.19;;;8.04;68.07
75420;BME280;63998;52.488;13.428;2024-01-25T03:17:44;101352.41;;;7.99;68.85
75420;BME280;63998;52.488;13.428;2024-01-25T03:20:09;101367.16;;;8.03;67.93
75420;BME280;63998;52.488;13.428;2024-01-25T03:22:35;101345.56;;;8.01;68.27
75420;BME280;63998;52.488;13.428;2024-01-25T03:25:01;101347.31;;;8.02;68.25
75420;BME280;63998;52.488;13.428;2024-01-25T03:27:26;101355.88;;;8.00;68.72
75420;BME280;63998;52.488;13.428;2024-01-25T03:29:51;101365.22;;;7.94;68.74
75420;BME280;63998;52.488;13.428;2024-01-25T03:32:17;101364.31;;;7.92;68.52
75420;BME280;63998;52.488;13.428;2024-01-25T03:34:42;101363.50;;;7.95;67.44
75420;BME280;63998;52.488;13.428;2024-01-25T03:37:07;101365.25;;;7.96;67.58
75420;BME280;63998;52.488;13.428;2024-01-25T03:39:33;101353.25;;;7.98;66.71
75420;BME280;63998;52.488;13.428;2024-01-25T03:41:58;101366.16;;;7.98;67.43
75420;BME280;63998;52.488;13.428;2024-01-25T03:44:23;101361.84;;;7.97;67.81
75420;BME280;63998;52.488;13.428;2024-01-25T03:46:49;101366.06;;;7.93;68.07
75420;BME280;63998;52.488;13.428;2024-01-25T03:49:14;101363.38;;;7.89;68.20
75420;BME280;63998;52.488;13.428;2024-01-25T03:51:40;101364.97;;;7.84;68.14
75420;BME280;63998;52.488;13.428;2024-01-25T03:54:07;101367.72;;;7.90;68.41
75420;BME280;63998;52.488;13.428;2024-01-25T03:56:33;101358.19;;;7.87;68.23
75420;BME280;63998;52.488;13.428;2024-01-25T03:58:58;101380.69;;;7.93;67.69
75420;BME280;63998;52.488;13.428;2024-01-25T04:01:24;101373.72;;;7.89;67.63
75420;BME280;63998;52.488;13.428;2024-01-25T04:03:49;101373.72;;;7.89;67.58
75420;BME280;63998;52.488;13.428;2024-01-25T04:06:17;101371.97;;;7.88;67.59
75420;BME280;63998;52.488;13.428;2024-01-25T04:08:42;101377.28;;;7.94;67.45
75420;BME280;63998;52.488;13.428;2024-01-25T04:11:07;101385.88;;;7.93;66.83
75420;BME280;63998;52.488;13.428;2024-01-25T04:13:34;101392.91;;;7.99;66.70
75420;BME280;63998;52.488;13.428;2024-01-25T04:16:00;101396.38;;;7.99;66.93
75420;BME280;63998;52.488;13.428;2024-01-25T04:18:25;101415.25;;;7.95;67.09
75420;BME280;63998;52.488;13.428;2024-01-25T04:20:50;101398.06;;;7.97;67.03
75420;BME280;63998;52.488;13.428;2024-01-25T04:23:16;101416.00;;;7.89;67.90
75420;BME280;63998;52.488;13.428;2024-01-25T04:25:41;101419.44;;;7.90;67.62
75420;BME280;63998;52.488;13.428;2024-01-25T04:28:07;101422.78;;;7.86;67.63
75420;BME280;63998;52.488;13.428;2024-01-25T04:30:32;101427.88;;;7.83;67.87
75420;BME280;63998;52.488;13.428;2024-01-25T04:32:58;101421.88;;;7.84;68.06
75420;BME280;63998;52.488;13.428;2024-01-25T04:35:23;101428.00;;;7.87;67.63
75420;BME280;63998;52.488;13.428;2024-01-25T04:37:48;101430.63;;;7.89;67.55
75420;BME280;63998;52.488;13.428;2024-01-25T04:40:14;101435.81;;;7.89;68.00
75420;BME280;63998;52.488;13.428;2024-01-25T04:42:39;101434.06;;;7.88;67.94
75420;BME280;63998;52.488;13.428;2024-01-25T04:45:05;101433.25;;;7.90;67.37
75420;BME280;63998;52.488;13.428;2024-01-25T04:47:30;101436.72;;;7.92;66.95
75420;BME280;63998;52.488;13.428;2024-01-25T04:49:56;101434.13;;;7.91;67.65
75420;BME280;63998;52.488;13.428;2024-01-25T04:52:21;101442.66;;;7.87;67.64
75420;BME280;63998;52.488;13.428;2024-01-25T04:54:46;101439.22;;;7.88;67.82
75420;BME280;63998;52.488;13.428;2024-01-25T04:57:12;101444.41;;;7.88;67.77
75420;BME280;63998;52.488;13.428;2024-01-25T04:59:37;101454.75;;;7.88;66.99
75420;BME280;63998;52.488;13.428;2024-01-25T05:02:02;101453.91;;;7.89;67.05
75420;BME280;63998;52.488;13.428;2024-01-25T05:04:28;101445.19;;;7.85;67.54
75420;BME280;63998;52.488;13.428;2024-01-25T05:06:57;101461.59;;;7.86;69.01
75420;BME280;63998;52.488;13.428;2024-01-25T05:09:22;101453.06;;;7.90;67.57
75420;BME280;63998;52.488;13.428;2024-01-25T05:11:48;101462.59;;;7.92;67.72
75420;BME280;63998;52.488;13.428;2024-01-25T05:14:13;101463.34;;;7.87;68.26
75420;BME280;63998;52.488;13.428;2024-01-25T05:16:38;101454.66;;;7.85;68.35
75420;BME280;63998;52.488;13.428;2024-01-25T05:19:04;101468.22;;;7.75;67.80
75420;BME280;63998;52.488;13.428;2024-01-25T05:21:29;101479.47;;;7.77;68.19
75420;BME280;63998;52.488;13.428;2024-01-25T05:23:54;101487.38;;;7.83;67.94
75420;BME280;63998;52.488;13.428;2024-01-25T05:26:20;101482.09;;;7.80;68.17
75420;BME280;63998;52.488;13.428;2024-01-25T05:28:45;101499.38;;;7.81;68.06
75420;BME280;63998;52.488;13.428;2024-01-25T05:31:10;101512.41;;;7.84;68.37
75420;BME280;63998;52.488;13.428;2024-01-25T05:33:41;101507.97;;;7.80;68.78
75420;BME280;63998;52.488;13.428;2024-01-25T05:36:07;101497.66;;;7.81;68.23
75420;BME280;63998;52.488;13.428;2024-01-25T05:38:32;101499.47;;;7.84;67.82
75420;BME280;63998;52.488;13.428;2024-01-25T05:40:58;101514.16;;;7.85;67.43
75420;BME280;63998;52.488;13.428;2024-01-25T05:43:23;101517.59;;;7.85;67.54
75420;BME280;63998;52.488;13.428;2024-01-25T05:45:49;101513.41;;;7.89;67.69
75420;BME280;63998;52.488;13.428;2024-01-25T05:48:15;101500.44;;;7.87;67.20
75420;BME280;63998;52.488;13.428;2024-01-25T05:50:40;101522.00;;;7.88;66.75
75420;BME280;63998;52.488;13.428;2024-01-25T05:53:05;101509.81;;;7.84;67.61
75420;BME280;63998;52.488;13.428;2024-01-25T05:55:31;101514.03;;;7.80;68.15
75420;BME280;63998;52.488;13.428;2024-01-25T05:57:56;101525.25;;;7.81;66.13
75420;BME280;63998;52.488;13.428;2024-01-25T06:00:22;101514.97;;;7.84;67.27
75420;BME280;63998;52.488;13.428;2024-01-25T06:02:47;101524.50;;;7.85;66.52
75420;BME280;63998;52.488;13.428;2024-01-25T06:05:12;101529.56;;;7.82;66.75
75420;BME280;63998;52.488;13.428;2024-01-25T06:07:38;101533.84;;;7.80;66.78
75420;BME280;63998;52.488;13.428;2024-01-25T06:10:03;101532.25;;;7.85;66.68
75420;BME280;63998;52.488;13.428;2024-01-25T06:12:29;101546.03;;;7.84;66.14
75420;BME280;63998;52.488;13.428;2024-01-25T06:14:54;101539.25;;;7.89;65.62
75420;BME280;63998;52.488;13.428;2024-01-25T06:17:19;101535.84;;;7.90;66.42
75420;BME280;63998;52.488;13.428;2024-01-25T06:19:45;101548.78;;;7.91;66.40
75420;BME280;63998;52.488;13.428;2024-01-25T06:22:10;101547.03;;;7.89;65.60
75420;BME280;63998;52.488;13.428;2024-01-25T06:24:37;101535.84;;;7.90;66.44
75420;BME280;63998;52.488;13.428;2024-01-25T06:27:03;101542.78;;;7.91;66.80
75420;BME280;63998;52.488;13.428;2024-01-25T06:29:28;101531.56;;;7.90;67.34
75420;BME280;63998;52.488;13.428;2024-01-25T06:31:53;101555.00;;;7.98;66.80
75420;BME280;63998;52.488;13.428;2024-01-25T06:34:19;101553.56;;;8.09;66.55
75420;BME280;63998;52.488;13.428;2024-01-25T06:36:44;101558.59;;;8.03;66.77
75420;BME280;63998;52.488;13.428;2024-01-25T06:39:09;101580.78;;;7.95;66.36
75420;BME280;63998;52.488;13.428;2024-01-25T06:41:35;101569.28;;;7.84;66.57
75420;BME280;63998;52.488;13.428;2024-01-25T06:44:00;101576.03;;;7.77;66.83
75420;BME280;63998;52.488;13.428;2024-01-25T06:46:26;101585.41;;;7.74;67.15
75420;BME280;63998;52.488;13.428;2024-01-25T06:48:52;101596.69;;;7.76;66.55
75420;BME280;63998;52.488;13.428;2024-01-25T06:51:17;101585.41;;;7.74;66.82
75420;BME280;63998;52.488;13.428;2024-01-25T06:53:42;101594.19;;;7.79;65.70
75420;BME280;63998;52.488;13.428;2024-01-25T06:56:08;101595.91;;;7.80;65.99
75420;BME280;63998;52.488;13.428;2024-01-25T06:58:33;101613.16;;;7.81;66.15
75420;BME280;63998;52.488;13.428;2024-01-25T07:00:59;101623.47;;;7.78;66.41
75420;BME280;63998;52.488;13.428;2024-01-25T07:03:24;101627.03;;;7.83;66.08
75420;BME280;63998;52.488;13.428;2024-01-25T07:05:50;101628.78;;;7.84;65.63
75420;BME280;63998;52.488;13.428;2024-01-25T07:08:15;101647.72;;;7.83;65.57
75420;BME280;63998;52.488;13.428;2024-01-25T07:10:41;101650.59;;;7.93;65.06
75420;BME280;63998;52.488;13.428;2024-01-25T07:13:06;101675.56;;;7.93;65.65
75420;BME280;63998;52.488;13.428;2024-01-25T07:15:32;101661.03;;;7.97;64.52
75420;BME280;63998;52.488;13.428;2024-01-25T07:17:57;101658.41;;;7.95;65.23
75420;BME280;63998;52.488;13.428;2024-01-25T07:20:22;101643.66;;;7.92;64.15
75420;BME280;63998;52.488;13.428;2024-01-25T07:22:48;101667.16;;;8.00;64.41
75420;BME280;63998;52.488;13.428;2024-01-25T07:25:13;101658.50;;;7.98;65.38
75420;BME280;63998;52.488;13.428;2024-01-25T07:27:39;101667.06;;;7.97;65.83
75420;BME280;63998;52.488;13.428;2024-01-25T07:30:05;101664.50;;;7.97;65.16
75420;BME280;63998;52.488;13.428;2024-01-25T07:32:30;101676.50;;;7.95;65.52
75420;BME280;63998;52.488;13.428;2024-01-25T07:34:57;101679.09;;;7.95;65.27
75420;BME280;63998;52.488;13.428;2024-01-25T07:37:23;101689.56;;;8.00;65.97
75420;BME280;63998;52.488;13.428;2024-01-25T07:39:48;101687.63;;;7.91;66.07
75420;BME280;63998;52.488;13.428;2024-01-25T07:42:13;101676.47;;;7.93;65.69
75420;BME280;63998;52.488;13.428;2024-01-25T07:44:39;101691.09;;;7.93;66.68
75420;BME280;63998;52.488;13.428;2024-01-25T07:47:04;101689.34;;;7.92;65.83
75420;BME280;63998;52.488;13.428;2024-01-25T07:49:30;101691.81;;;7.87;66.71
75420;BME280;63998;52.488;13.428;2024-01-25T07:51:55;101690.94;;;7.87;65.88
75420;BME280;63998;52.488;13.428;2024-01-25T07:54:24;101690.94;;;7.87;66.49
75420;BME280;63998;52.488;13.428;2024-01-25T07:56:50;101694.47;;;7.89;67.25
75420;BME280;63998;52.488;13.428;2024-01-25T07:59:15;101704.19;;;7.98;66.84
75420;BME280;63998;52.488;13.428;2024-01-25T08:01:41;101709.59;;;8.07;67.35
75420;BME280;63998;52.488;13.428;2024-01-25T08:04:09;101712.19;;;8.07;66.53
75420;BME280;63998;52.488;13.428;2024-01-25T08:06:34;101712.22;;;8.08;66.86
75420;BME280;63998;52.488;13.428;2024-01-25T08:09:00;101712.13;;;8.05;66.30
75420;BME280;63998;52.488;13.428;2024-01-25T08:11:25;101714.91;;;8.11;64.92
75420;BME280;63998;52.488;13.428;2024-01-25T08:13:51;101714.81;;;8.08;65.41
75420;BME280;63998;52.488;13.428;2024-01-25T08:16:16;101712.88;;;8.00;65.63
75420;BME280;63998;52.488;13.428;2024-01-25T08:18:46;101720.31;;;7.89;66.39
75420;BME280;63998;52.488;13.428;2024-01-25T08:21:12;101721.06;;;7.85;65.48
75420;BME280;63998;52.488;13.428;2024-01-25T08:23:41;101739.38;;;7.92;65.83
75420;BME280;63998;52.488;13.428;2024-01-25T08:26:07;101751.66;;;8.00;66.22
75420;BME280;63998;52.488;13.428;2024-01-25T08:28:40;101750.84;;;8.01;65.91
75420;BME280;63998;52.488;13.428;2024-01-25T08:31:05;101748.09;;;7.96;65.71
75420;BME280;63998;52.488;13.428;2024-01-25T08:33:31;101739.34;;;7.91;66.12
75420;BME280;63998;52.488;13.428;2024-01-25T08:35:56;101770.41;;;7.91;65.91
75420;BME280;63998;52.488;13.428;2024-01-25T08:38:21;101770.41;;;7.91;65.93
75420;BME280;63998;52.488;13.428;2024-01-25T08:40:47;101763.69;;;7.98;66.54
75420;BME280;63998;52.488;13.428;2024-01-25T08:43:12;101752.44;;;7.97;66.36
75420;BME280;63998;52.488;13.428;2024-01-25T08:45:37;101762.06;;;8.01;66.25
75420;BME280;63998;52.488;13.428;2024-01-25T08:48:04;101761.44;;;8.10;66.21
75420;BME280;63998;52.488;13.428;2024-01-25T08:50:29;101762.31;;;8.10;65.44
75420;BME280;63998;52.488;13.428;2024-01-25T08:52:54;101774.66;;;8.20;64.00
75420;BME280;63998;52.488;13.428;2024-01-25T08:55:20;101770.47;;;8.24;64.26
75420;BME280;63998;52.488;13.428;2024-01-25T08:57:46;101773.16;;;8.28;64.58
75420;BME280;63998;52.488;13.428;2024-01-25T09:00:11;101786.63;;;8.15;66.22
75420;BME280;63998;52.488;13.428;2024-01-25T09:02:38;101779.84;;;8.20;65.40
75420;BME280;63998;52.488;13.428;2024-01-25T09:05:04;101792.84;;;8.22;65.64
75420;BME280;63998;52.488;13.428;2024-01-25T09:07:30;101779.13;;;8.24;64.78
75420;BME280;63998;52.488;13.428;2024-01-25T09:09:55;101796.22;;;8.19;64.37
75420;BME280;63998;52.488;13.428;2024-01-25T09:12:20;101791.81;;;8.15;64.71
75420;BME280;63998;52.488;13.428;2024-01-25T09:14:46;101800.41;;;8.14;65.63
75420;BME280;63998;52.488;13.428;2024-01-25T09:17:11;101804.50;;;8.08;66.18
75420;BME280;63998;52.488;13.428;2024-01-25T09:19:36;101808.06;;;8.11;65.41
75420;BME280;63998;52.488;13.428;2024-01-25T09:22:02;101824.28;;;8.06;66.58
75420;BME280;63998;52.488;13.428;2024-01-25T09:24:30;101827.56;;;8.00;66.10
75420;BME280;63998;52.488;13.428;2024-01-25T09:26:56;101822.41;;;8.00;66.06
75420;BME280;63998;52.488;13.428;2024-01-25T09:29:24;101824.88;;;7.97;66.03
75420;BME280;63998;52.488;13.428;2024-01-25T09:31:49;101834.31;;;7.95;66.55
75420;BME280;63998;52.488;13.428;2024-01-25T09:34:14;101822.28;;;7.97;66.43
75420;BME280;63998;52.488;13.428;2024-01-25T09:36:40;101848.38;;;8.03;66.97
75420;BME280;63998;52.488;13.428;2024-01-25T09:39:05;101835.34;;;8.00;66.39
75420;BME280;63998;52.488;13.428;2024-01-25T09:41:30;101839.75;;;8.04;65.71
75420;BME280;63998;52.488;13.428;2024-01-25T09:43:56;101839.94;;;8.10;66.21
75420;BME280;63998;52.488;13.428;2024-01-25T09:46:21;101841.50;;;8.05;65.76
75420;BME280;63998;52.488;13.428;2024-01-25T09:48:47;101864.16;;;8.12;65.73
75420;BME280;63998;52.488;13.428;2024-01-25T09:51:13;101843.34;;;8.09;65.81
75420;BME280;63998;52.488;13.428;2024-01-25T09:53:40;101845.22;;;8.13;65.45
75420;BME280;63998;52.488;13.428;2024-01-25T09:56:08;101854.69;;;8.13;64.84
75420;BME280;63998;52.488;13.428;2024-01-25T09:58:41;101858.72;;;8.03;65.99
75420;BME280;63998;52.488;13.428;2024-01-25T10:01:09;101857.78;;;8.01;66.21
75420;BME280;63998;52.488;13.428;2024-01-25T10:03:47;101873.22;;;7.98;66.65
75420;BME280;63998;52.488;13.428;2024-01-25T10:06:13;101866.38;;;8.00;66.61
75420;BME280;63998;52.488;13.428;2024-01-25T10:08:39;101866.50;;;8.05;66.68
75420;BME280;63998;52.488;13.428;2024-01-25T10:11:05;101874.41;;;8.09;65.82
75420;BME280;63998;52.488;13.428;2024-01-25T10:13:30;101873.75;;;8.16;65.56
75420;BME280;63998;52.488;13.428;2024-01-25T10:15:56;101869.44;;;8.17;65.07
75420;BME280;63998;52.488;13.428;2024-01-25T10:18:22;101864.31;;;8.18;65.09
75420;BME280;63998;52.488;13.428;2024-01-25T10:20:48;101871.81;;;8.09;66.12
75420;BME280;63998;52.488;13.428;2024-01-25T10:23:13;101871.00;;;8.10;65.77
75420;BME280;63998;52.488;13.428;2024-01-25T10:25:38;101865.91;;;8.13;65.99
75420;BME280;63998;52.488;13.428;2024-01-25T10:28:05;101860.91;;;8.19;66.49
75420;BME280;63998;52.488;13.428;2024-01-25T10:30:35;101873.22;;;8.26;65.93
75420;BME280;63998;52.488;13.428;2024-01-25T10:33:02;101870.81;;;8.33;65.08
75420;BME280;63998;52.488;13.428;2024-01-25T10:35:28;101881.19;;;8.33;65.47
75420;BME280;63998;52.488;13.428;2024-01-25T10:37:54;101882.09;;;8.35;64.91
75420;BME280;63998;52.488;13.428;2024-01-25T10:40:20;101883.16;;;8.41;64.89
75420;BME280;63998;52.488;13.428;2024-01-25T10:42:46;101890.28;;;8.48;64.71
75420;BME280;63998;52.488;13.428;2024-01-25T10:45:12;101891.25;;;8.52;64.96
75420;BME280;63998;52.488;13.428;2024-01-25T10:47:38;101886.22;;;8.58;64.40
75420;BME280;63998;52.488;13.428;2024-01-25T10:50:07;101882.84;;;8.60;64.16
75420;BME280;63998;52.488;13.428;2024-01-25T10:52:36;101890.41;;;8.53;63.53
75420;BME280;63998;52.488;13.428;2024-01-25T10:55:03;101877.53;;;8.56;63.22
75420;BME280;63998;52.488;13.428;2024-01-25T10:57:42;101886.31;;;8.61;63.27
75420;BME280;63998;52.488;13.428;2024-01-25T11:00:13;101886.41;;;8.64;63.39
75420;BME280;63998;52.488;13.428;2024-01-25T11:02:39;101896.84;;;8.67;63.35
75420;BME280;63998;52.488;13.428;2024-01-25T11:05:13;101896.78;;;8.64;63.45
75420;BME280;63998;52.488;13.428;2024-01-25T11:07:48;101908.13;;;8.69;63.72
75420;BME280;63998;52.488;13.428;2024-01-25T11:10:20;101916.09;;;8.75;64.31
75420;BME280;63998;52.488;13.428;2024-01-25T11:15:23;101901.13;;;8.96;63.46
75420;BME280;63998;52.488;13.428;2024-01-25T11:17:54;101911.72;;;9.06;63.94
75420;BME280;63998;52.488;13.428;2024-01-25T11:20:21;101916.22;;;9.11;63.57
75420;BME280;63998;52.488;13.428;2024-01-25T11:22:46;101901.69;;;9.18;64.03
75420;BME280;63998;52.488;13.428;2024-01-25T11:25:21;101896.81;;;9.30;63.80
75420;BME280;63998;52.488;13.428;2024-01-25T11:27:48;101897.88;;;9.36;63.38
75420;BME280;63998;52.488;13.428;2024-01-25T11:30:14;101911.53;;;9.31;62.78
75420;BME280;63998;52.488;13.428;2024-01-25T11:32:42;101911.34;;;9.23;63.80
75420;BME280;63998;52.488;13.428;2024-01-25T11:35:08;101909.28;;;9.10;63.19
75420;BME280;63998;52.488;13.428;2024-01-25T11:37:36;101928.06;;;9.02;63.30
75420;BME280;63998;52.488;13.428;2024-01-25T11:40:02;101910.06;;;9.08;62.43
75420;BME280;63998;52.488;13.428;2024-01-25T11:42:28;101917.19;;;9.15;62.34
75420;BME280;63998;52.488;13.428;2024-01-25T11:44:56;101918.25;;;9.23;62.91
75420;BME280;63998;52.488;13.428;2024-01-25T11:47:21;101917.66;;;9.33;62.20
75420;BME280;63998;52.488;13.428;2024-01-25T11:49:46;101911.09;;;9.47;60.99
75420;BME280;63998;52.488;13.428;2024-01-25T11:52:14;101924.69;;;9.37;60.36
75420;BME280;63998;52.488;13.428;2024-01-25T11:54:40;101925.00;;;9.49;61.58
75420;BME280;63998;52.488;13.428;2024-01-25T11:57:05;101922.53;;;9.55;60.61
75420;BME280;63998;52.488;13.428;2024-01-25T11:59:31;101927.19;;;9.68;61.40
75420;BME280;63998;52.488;13.428;2024-01-25T12:01:56;101923.84;;;9.72;60.28
75420;BME280;63998;52.488;13.428;2024-01-25T12:04:24;101933.38;;;9.73;59.86
75420;BME280;63998;52.488;13.428;2024-01-25T12:06:49;101917.50;;;9.61;60.14
75420;BME280;63998;52.488;13.428;2024-01-25T12:09:15;101935.09;;;9.73;60.50
75420;BME280;63998;52.488;13.428;2024-01-25T12:11:41;101939.50;;;9.76;59.48
75420;BME280;63998;52.488;13.428;2024-01-25T12:14:08;101926.31;;;9.68;58.83
75420;BME280;63998;52.488;13.428;2024-01-25T12:16:33;101930.22;;;10.21;58.57
75420;BME280;63998;52.488;13.428;2024-01-25T12:18:59;101921.50;;;10.19;57.39
75420;BME280;63998;52.488;13.428;2024-01-25T12:21:24;101923.38;;;9.90;56.87
75420;BME280;63998;52.488;13.428;2024-01-25T12:23:50;101922.03;;;10.06;57.48
75420;BME280;63998;52.488;13.428;2024-01-25T12:26:16;101909.34;;;12.02;55.03
75420;BME280;63998;52.488;13.428;2024-01-25T12:28:41;101921.78;;;13.72;50.24
75420;BME280;63998;52.488;13.428;2024-01-25T12:31:07;101908.00;;;13.01;49.11
75420;BME280;63998;52.488;13.428;2024-01-25T12:33:33;101916.81;;;12.39;50.05
75420;BME280;63998;52.488;13.428;2024-01-25T12:35:59;101936.13;;;11.93;51.13
75420;BME280;63998;52.488;13.428;2024-01-25T12:38:25;101935.09;;;11.34;52.33
75420;BME280;63998;52.488;13.428;2024-01-25T12:40:51;101923.28;;;11.04;53.12
75420;BME280;63998;52.488;13.428;2024-01-25T12:43:17;101919.78;;;11.49;53.30
75420;BME280;63998;52.488;13.428;2024-01-25T12:45:43;101918.75;;;11.41;53.78